Time;durP1;ratioP1;P1;durP2;ratioP2;P2;SDS_P1;SDS_P2;PMS_P1;PMS_P2;Temp;Humidity;BMP_temperature;BMP_pressure;BME280_temperature;BME280_humidity;BME280_pressure;Samples;Min_cycle;Max_cycle;Signal;HPM_P1;HPM_P2
2023/06/20 00:00:09;;;;;;;;;;;;;;;26.75;38.25;100610.84;5087564;28;1093;-22
2023/06/20 00:02:35;;;;;;;;;;;;;;;26.83;37.70;100612.63;5078441;28;1143;-22
2023/06/20 00:05:02;;;;;;;;;;;;;;;26.76;37.85;100615.22;5090114;28;1070;-22
2023/06/20 00:07:28;;;;;;;;;;;;;;;26.85;37.88;100615.13;5084032;28;1162;-23
2023/06/20 00:09:53;;;;;;;;;;;;;;;26.85;38.09;100612.44;5097676;28;1961;-23
2023/06/20 00:12:19;;;;;;;;;;;;;;;26.84;37.71;100614.28;5083852;28;1114;-25
2023/06/20 00:14:44;;;;;;;;;;;;;;;26.89;37.50;100609.19;5077449;28;1154;-21
2023/06/20 00:17:10;;;;;;;;;;;;;;;26.79;37.30;100605.94;5090434;28;1035;-22
2023/06/20 00:19:35;;;;;;;;;;;;;;;26.82;37.47;100604.72;5088818;28;1213;-21
2023/06/20 00:22:05;;;;;;;;;;;;;;;26.82;37.12;100594.75;5092237;28;1058;-22
2023/06/20 00:24:33;;;;;;;;;;;;;;;26.77;36.71;100602.56;5089301;28;1139;-22
2023/06/20 00:27:01;;;;;;;;;;;;;;;26.82;36.13;100602.00;5077911;28;1149;-22
2023/06/20 00:29:27;;;;;;;;;;;;;;;26.96;36.57;100597.66;5090309;28;1905;-21
2023/06/20 00:31:52;;;;;;;;;;;;;;;27.09;35.48;100603.25;5072311;28;1039;-21
2023/06/20 00:34:22;;;;;;;;;;;;;;;26.97;35.70;100592.06;5071306;28;1296;-22
2023/06/20 00:36:47;;;;;;;;;;;;;;;26.85;34.72;100585.44;5090517;28;1007;-22
2023/06/20 00:39:13;;;;;;;;;;;;;;;27.00;35.45;100588.16;5077012;28;1166;-23
2023/06/20 00:41:41;;;;;;;;;;;;;;;27.04;34.83;100602.16;5087278;28;1273;-23
2023/06/20 00:44:06;;;;;;;;;;;;;;;27.04;35.39;100597.59;5082954;28;1038;-22
2023/06/20 00:46:32;;;;;;;;;;;;;;;27.04;35.96;100603.00;5084236;28;1019;-22
2023/06/20 00:49:00;;;;;;;;;;;;;;;26.97;36.85;100607.44;5081921;28;906;-21
2023/06/20 00:51:28;;;;;;;;;;;;;;;26.87;37.12;100619.34;5078608;28;1910;-22
2023/06/20 00:53:53;;;;;;;;;;;;;;;26.85;37.27;100612.44;5096126;28;1082;-21
2023/06/20 00:56:19;;;;;;;;;;;;;;;26.86;36.81;100616.81;5078315;28;1137;-22
2023/06/20 00:58:45;;;;;;;;;;;;;;;26.94;37.05;100626.69;5082724;28;1094;-21
2023/06/20 01:01:10;;;;;;;;;;;;;;;26.73;37.82;100620.97;5074525;28;864;-24
2023/06/20 01:03:39;;;;;;;;;;;;;;;26.73;37.87;100620.97;5071467;28;1210;-22
2023/06/20 01:06:06;;;;;;;;;;;;;;;26.71;37.86;100614.09;5058717;28;1169;-25
2023/06/20 01:08:54;;;;;;;;;;;;;;;26.83;37.41;100622.56;5089897;28;1149;-22
2023/06/20 01:11:52;;;;;;;;;;;;;;;26.69;37.75;100624.25;5058993;28;1963;-22
2023/06/20 01:14:24;;;;;;;;;;;;;;;26.76;37.43;100614.38;5015563;28;1165;-21
2023/06/20 01:16:49;;;;;;;;;;;;;;;26.64;37.84;100620.22;5076249;28;1031;-23
2023/06/20 01:19:19;;;;;;;;;;;;;;;26.72;37.22;100616.63;5057960;28;1151;-24
2023/06/20 01:21:45;;;;;;;;;;;;;;;26.78;36.28;100609.63;5045013;28;1126;-21
2023/06/20 01:24:37;;;;;;;;;;;;;;;26.92;35.86;100617.94;5073820;28;1231;-23
2023/06/20 01:27:03;;;;;;;;;;;;;;;26.83;36.09;100617.16;5056448;28;1343;-24
2023/06/20 01:29:34;;;;;;;;;;;;;;;26.87;35.75;100622.03;5071745;28;1915;-23
2023/06/20 01:32:00;;;;;;;;;;;;;;;26.82;36.42;100621.75;5049368;28;1156;-21
2023/06/20 01:34:29;;;;;;;;;;;;;;;26.84;36.84;100621.56;5064062;28;1123;-22
2023/06/20 01:36:58;;;;;;;;;;;;;;;26.89;36.10;100624.56;5093051;28;868;-22
2023/06/20 01:39:26;;;;;;;;;;;;;;;26.81;36.63;100614.66;5065083;28;1157;-22
2023/06/20 01:41:53;;;;;;;;;;;;;;;26.83;35.70;100609.06;5069524;28;1142;-22
2023/06/20 01:44:19;;;;;;;;;;;;;;;26.85;35.53;100610.59;5078048;28;1123;-21
2023/06/20 01:46:44;;;;;;;;;;;;;;;26.87;35.17;100613.94;5073512;28;1046;-22
2023/06/20 01:49:10;;;;;;;;;;;;;;;26.87;35.23;100611.25;5063112;28;1134;-21
2023/06/20 01:51:35;;;;;;;;;;;;;;;26.90;35.02;100620.81;5087695;28;1910;-22
2023/06/20 01:54:01;;;;;;;;;;;;;;;26.92;35.33;100626.88;5066746;28;1090;-22
2023/06/20 01:56:27;;;;;;;;;;;;;;;26.94;35.50;100632.09;5070740;28;1123;-22
2023/06/20 01:58:53;;;;;;;;;;;;;;;26.83;35.42;100627.97;5068660;28;1283;-23
2023/06/20 02:01:18;;;;;;;;;;;;;;;26.86;35.48;100636.53;5072893;28;1114;-23
2023/06/20 02:03:44;;;;;;;;;;;;;;;26.81;35.54;100638.13;5081045;28;1709;-21
2023/06/20 02:06:10;;;;;;;;;;;;;;;26.87;35.56;100646.34;5091509;28;1066;-22
2023/06/20 02:08:37;;;;;;;;;;;;;;;26.87;36.12;100649.03;5080426;28;1066;-22
2023/06/20 02:11:02;;;;;;;;;;;;;;;26.76;36.15;100644.06;5081629;28;2356;-21
2023/06/20 02:13:29;;;;;;;;;;;;;;;26.87;36.07;100651.72;5081103;28;1210;-21
2023/06/20 02:15:54;;;;;;;;;;;;;;;26.79;36.41;100651.81;5065137;28;1340;-21
2023/06/20 02:18:20;;;;;;;;;;;;;;;26.74;36.78;100654.22;5066633;28;1126;-22
2023/06/20 02:20:52;;;;;;;;;;;;;;;26.63;36.90;100653.63;5079313;28;1194;-21
2023/06/20 02:23:25;;;;;;;;;;;;;;;26.73;36.95;100652.50;5093139;28;1058;-21
2023/06/20 02:25:50;;;;;;;;;;;;;;;26.75;36.81;100659.44;5075288;28;913;-21
2023/06/20 02:28:16;;;;;;;;;;;;;;;26.78;36.44;100656.34;5064753;28;1150;-22
2023/06/20 02:30:44;;;;;;;;;;;;;;;26.73;36.50;100653.38;5061592;28;1906;-22
2023/06/20 02:33:11;;;;;;;;;;;;;;;26.77;36.33;100662.78;5061512;28;1215;-21
2023/06/20 02:35:37;;;;;;;;;;;;;;;26.76;36.00;100663.78;5077879;28;1186;-22
2023/06/20 02:38:02;;;;;;;;;;;;;;;26.72;36.04;100667.88;5077379;28;1031;-21
2023/06/20 02:40:28;;;;;;;;;;;;;;;26.75;35.21;100664.81;5080078;28;1121;-21
2023/06/20 02:42:53;;;;;;;;;;;;;;;26.66;35.92;100674.00;5082200;28;1249;-22
2023/06/20 02:45:19;;;;;;;;;;;;;;;26.69;36.37;100673.66;5060614;28;1159;-22
2023/06/20 02:47:51;;;;;;;;;;;;;;;26.68;36.50;100673.81;5078901;28;1225;-22
2023/06/20 02:50:20;;;;;;;;;;;;;;;26.39;36.84;100674.38;5084464;28;1967;-22
2023/06/20 02:52:49;;;;;;;;;;;;;;;26.47;36.48;100675.34;5076073;28;1214;-21
2023/06/20 02:55:21;;;;;;;;;;;;;;;26.53;36.81;100672.75;5073071;28;1231;-22
2023/06/20 02:57:47;;;;;;;;;;;;;;;26.47;37.14;100675.34;5079707;28;1067;-22
2023/06/20 03:00:12;;;;;;;;;;;;;;;26.53;36.45;100686.25;5067679;28;1071;-21
2023/06/20 03:02:46;;;;;;;;;;;;;;;26.52;36.38;100679.19;5091613;28;1229;-21
2023/06/20 03:05:13;;;;;;;;;;;;;;;26.56;36.44;100689.59;5057395;28;1091;-21
2023/06/20 03:07:41;;;;;;;;;;;;;;;26.63;35.67;100691.41;5068637;28;1370;-22
2023/06/20 03:10:06;;;;;;;;;;;;;;;26.74;35.74;100692.00;5062733;28;1969;-22
2023/06/20 03:12:32;;;;;;;;;;;;;;;26.72;35.95;100697.56;5066794;28;1186;-22
2023/06/20 03:14:57;;;;;;;;;;;;;;;26.68;36.69;100690.84;5061731;28;1099;-20
2023/06/20 03:17:23;;;;;;;;;;;;;;;26.04;37.07;100692.78;5066367;28;1114;-21
2023/06/20 03:19:49;;;;;;;;;;;;;;;25.41;38.69;100691.66;5068037;28;1300;-24
2023/06/20 03:22:17;;;;;;;;;;;;;;;25.42;38.96;100692.50;5077064;28;1206;-22
2023/06/20 03:24:45;;;;;;;;;;;;;;;25.46;38.61;100699.22;5070621;28;1146;-24
2023/06/20 03:27:11;;;;;;;;;;;;;;;25.28;39.40;100696.75;5079956;28;1167;-22
2023/06/20 03:29:36;;;;;;;;;;;;;;;25.30;39.71;100692.88;5080501;28;1980;-21
2023/06/20 03:32:02;;;;;;;;;;;;;;;25.48;39.80;100694.50;5060014;28;1192;-22
2023/06/20 03:34:29;;;;;;;;;;;;;;;25.42;39.90;100695.19;5080633;28;1184;-22
2023/06/20 03:36:55;;;;;;;;;;;;;;;25.52;39.82;100692.31;5075934;28;1277;-24
2023/06/20 03:39:22;;;;;;;;;;;;;;;25.60;39.57;100684.19;5076825;28;1180;-23
2023/06/20 03:41:48;;;;;;;;;;;;;;;25.81;39.19;100693.56;5090999;28;1082;-23
2023/06/20 03:44:13;;;;;;;;;;;;;;;25.76;39.31;100685.16;5068170;28;1352;-21
2023/06/20 03:46:40;;;;;;;;;;;;;;;25.19;40.63;100683.28;5071372;28;1256;-22
2023/06/20 03:49:05;;;;;;;;;;;;;;;25.09;40.57;100677.25;5065563;28;1237;-22
2023/06/20 03:51:31;;;;;;;;;;;;;;;24.60;41.88;100683.50;5069423;28;1906;-22
2023/06/20 03:53:56;;;;;;;;;;;;;;;24.82;40.96;100685.50;5059908;28;1305;-21
2023/06/20 03:56:22;;;;;;;;;;;;;;;25.01;38.27;100682.66;5059799;28;1225;-20
2023/06/20 03:58:48;;;;;;;;;;;;;;;25.64;36.74;100690.13;5059310;28;1151;-21
2023/06/20 04:01:13;;;;;;;;;;;;;;;26.02;37.85;100695.66;5069951;28;1149;-22
2023/06/20 04:03:39;;;;;;;;;;;;;;;26.19;37.92;100700.97;5079325;28;1346;-22
2023/06/20 04:06:04;;;;;;;;;;;;;;;26.22;37.41;100700.59;5097962;28;1082;-22
2023/06/20 04:08:30;;;;;;;;;;;;;;;26.26;37.52;100701.06;5062500;28;1125;-21
2023/06/20 04:10:57;;;;;;;;;;;;;;;26.31;37.57;100692.47;5059609;28;1905;-23
2023/06/20 04:13:22;;;;;;;;;;;;;;;26.48;37.86;100698.59;5078589;28;1159;-23
2023/06/20 04:15:49;;;;;;;;;;;;;;;26.69;37.39;100699.78;5079381;28;1174;-21
2023/06/20 04:18:15;;;;;;;;;;;;;;;26.76;37.61;100698.03;5064857;28;1154;-23
2023/06/20 04:20:44;;;;;;;;;;;;;;;26.69;37.40;100697.94;5089269;28;1050;-22
2023/06/20 04:23:09;;;;;;;;;;;;;;;26.81;37.34;100705.59;5077028;28;1202;-22
2023/06/20 04:25:35;;;;;;;;;;;;;;;26.86;37.25;100711.28;5063538;28;1126;-23
2023/06/20 04:28:01;;;;;;;;;;;;;;;26.91;37.54;100711.56;5065312;28;1563;-21
2023/06/20 04:30:38;;;;;;;;;;;;;;;26.97;37.52;100718.94;5074269;28;1992;-21
2023/06/20 04:33:04;;;;;;;;;;;;;;;26.90;37.51;100713.44;5092850;28;1253;-21
2023/06/20 04:35:31;;;;;;;;;;;;;;;26.95;37.61;100715.59;5069131;28;1404;-22
2023/06/20 04:38:01;;;;;;;;;;;;;;;26.98;37.45;100715.22;5062852;28;1356;-23
2023/06/20 04:40:27;;;;;;;;;;;;;;;27.01;37.58;100716.69;5064529;28;1178;-23
2023/06/20 04:42:52;;;;;;;;;;;;;;;26.99;37.59;100724.97;5083510;28;1050;-22
2023/06/20 04:45:18;;;;;;;;;;;;;;;27.09;37.47;100721.22;5082419;28;1210;-21
2023/06/20 04:47:44;;;;;;;;;;;;;;;27.08;37.48;100719.53;5082751;28;1007;-22
2023/06/20 04:50:09;;;;;;;;;;;;;;;27.06;37.58;100725.13;5073855;28;1923;-21
2023/06/20 04:52:35;;;;;;;;;;;;;;;27.07;37.47;100718.72;5089793;28;1217;-22
2023/06/20 04:55:03;;;;;;;;;;;;;;;27.13;37.08;100720.69;5058757;28;1244;-23
2023/06/20 04:57:29;;;;;;;;;;;;;;;27.15;37.75;100725.88;5081629;28;1249;-21
2023/06/20 04:59:55;;;;;;;;;;;;;;;27.18;37.85;100720.13;5077897;28;1181;-22
2023/06/20 05:02:20;;;;;;;;;;;;;;;27.18;37.62;100724.66;5060991;28;1171;-21
2023/06/20 05:04:46;;;;;;;;;;;;;;;27.28;37.56;100724.44;5069306;28;1255;-22
2023/06/20 05:07:12;;;;;;;;;;;;;;;27.26;37.38;100727.28;5064365;28;1291;-23
2023/06/20 05:09:37;;;;;;;;;;;;;;;27.36;35.86;100727.03;5065326;28;2004;-23
2023/06/20 05:12:03;;;;;;;;;;;;;;;27.48;35.00;100722.00;5076054;28;1035;-22
2023/06/20 05:14:29;;;;;;;;;;;;;;;27.38;35.90;100717.72;5076149;28;1003;-22
2023/06/20 05:16:54;;;;;;;;;;;;;;;27.47;35.48;100718.47;5076281;28;1118;-24
2023/06/20 05:19:20;;;;;;;;;;;;;;;27.37;36.54;100721.47;5075016;28;1061;-24
2023/06/20 05:21:45;;;;;;;;;;;;;;;27.35;37.35;100728.03;5078463;28;1084;-23
2023/06/20 05:24:11;;;;;;;;;;;;;;;27.35;37.72;100728.03;5095996;28;1087;-23
2023/06/20 05:26:36;;;;;;;;;;;;;;;27.28;38.48;100719.84;5086433;28;1014;-22
2023/06/20 05:29:03;;;;;;;;;;;;;;;27.39;37.46;100721.25;5084664;28;1039;-22
2023/06/20 05:31:29;;;;;;;;;;;;;;;27.51;38.09;100722.47;5092571;28;1910;-21
2023/06/20 05:33:54;;;;;;;;;;;;;;;27.64;37.46;100726.38;5085343;28;1141;-22
2023/06/20 05:36:20;;;;;;;;;;;;;;;27.75;37.37;100722.38;5092459;28;1125;-22
2023/06/20 05:38:48;;;;;;;;;;;;;;;27.63;37.46;100722.00;5076495;28;844;-22
2023/06/20 05:41:16;;;;;;;;;;;;;;;27.80;37.56;100732.63;5088840;28;979;-23
2023/06/20 05:43:41;;;;;;;;;;;;;;;27.62;37.47;100725.72;5085735;28;1063;-22
2023/06/20 05:46:07;;;;;;;;;;;;;;;27.53;38.17;100735.78;5079355;28;1201;-24
2023/06/20 05:48:34;;;;;;;;;;;;;;;27.82;37.27;100738.69;5075239;28;1162;-23
2023/06/20 05:51:00;;;;;;;;;;;;;;;27.74;37.45;100729.66;5083297;28;1979;-22
2023/06/20 05:53:26;;;;;;;;;;;;;;;27.85;37.21;100732.91;5075301;28;1433;-24
2023/06/20 05:55:52;;;;;;;;;;;;;;;27.80;37.32;100741.59;5070957;28;1102;-22
2023/06/20 05:58:18;;;;;;;;;;;;;;;27.67;38.06;100738.69;5085631;28;1059;-21
2023/06/20 06:00:44;;;;;;;;;;;;;;;27.92;37.82;100743.81;5079132;28;1129;-24
2023/06/20 06:03:10;;;;;;;;;;;;;;;28.14;37.64;100752.81;5077182;28;1174;-27
2023/06/20 06:05:35;;;;;;;;;;;;;;;28.21;36.79;100744.78;5075227;28;1028;-24
2023/06/20 06:08:01;;;;;;;;;;;;;;;28.14;37.86;100744.72;5085504;28;1166;-22
2023/06/20 06:10:26;;;;;;;;;;;;;;;27.99;37.71;100742.84;5092042;28;1909;-21
2023/06/20 06:12:52;;;;;;;;;;;;;;;27.86;37.92;100732.72;5085937;28;1078;-22
2023/06/20 06:15:17;;;;;;;;;;;;;;;27.92;38.13;100738.41;5088573;28;1142;-23
2023/06/20 06:17:43;;;;;;;;;;;;;;;27.96;38.05;100728.91;5084978;28;1062;-22
2023/06/20 06:20:12;;;;;;;;;;;;;;;28.06;38.03;100729.41;5092438;28;1193;-24
2023/06/20 06:22:38;;;;;;;;;;;;;;;28.27;37.75;100729.66;5085532;28;1109;-24
2023/06/20 06:25:07;;;;;;;;;;;;;;;28.13;38.08;100740.31;5082152;28;1164;-22
2023/06/20 06:27:34;;;;;;;;;;;;;;;28.20;38.26;100732.28;5084730;28;930;-24
2023/06/20 06:29:59;;;;;;;;;;;;;;;28.15;39.33;100732.84;5088516;28;1969;-22
2023/06/20 06:32:25;;;;;;;;;;;;;;;28.34;38.56;100733.31;5078676;28;1138;-22
2023/06/20 06:34:51;;;;;;;;;;;;;;;28.31;38.43;100733.66;5077881;28;1091;-21
2023/06/20 06:37:16;;;;;;;;;;;;;;;28.34;38.69;100739.53;5079113;28;1050;-22
2023/06/20 06:39:42;;;;;;;;;;;;;;;28.33;38.04;100734.31;5092646;28;1027;-21
2023/06/20 06:42:07;;;;;;;;;;;;;;;28.33;38.84;100745.13;5078903;28;1174;-23
2023/06/20 06:44:34;;;;;;;;;;;;;;;28.10;38.89;100740.69;5064825;28;1306;-22
2023/06/20 06:47:01;;;;;;;;;;;;;;;27.81;38.92;100737.84;5080891;28;1103;-22
2023/06/20 06:49:27;;;;;;;;;;;;;;;27.75;38.22;100728.66;5085460;28;1150;-22
2023/06/20 06:51:52;;;;;;;;;;;;;;;28.14;37.73;100731.19;5087493;28;1914;-23
2023/06/20 06:54:19;;;;;;;;;;;;;;;27.85;37.89;100722.94;5078477;28;1125;-22
2023/06/20 06:56:45;;;;;;;;;;;;;;;28.05;37.80;100729.59;5089268;28;1083;-23
2023/06/20 06:59:11;;;;;;;;;;;;;;;28.25;37.12;100724.44;5081528;28;1110;-23
2023/06/20 07:01:36;;;;;;;;;;;;;;;28.38;36.77;100726.47;5078596;28;1171;-24
2023/06/20 07:04:02;;;;;;;;;;;;;;;28.26;36.84;100725.28;5091847;28;1497;-22
2023/06/20 07:06:29;;;;;;;;;;;;;;;28.24;36.90;100720.06;5078640;28;1181;-22
2023/06/20 07:08:54;;;;;;;;;;;;;;;28.34;36.86;100723.31;5096150;28;1061;-24
2023/06/20 07:11:20;;;;;;;;;;;;;;;28.51;36.83;100724.94;5087796;28;1902;-26
2023/06/20 07:13:46;;;;;;;;;;;;;;;28.53;36.57;100728.28;5077936;28;1034;-22
2023/06/20 07:16:11;;;;;;;;;;;;;;;25.70;42.95;100718.19;5086376;28;941;-23
2023/06/20 07:18:37;;;;;;;;;;;;;;;21.92;49.10;100714.97;5088893;28;1074;-22
2023/06/20 07:21:03;;;;;;;;;;;;;;;24.03;47.38;100718.13;5094278;28;1204;-25
2023/06/20 07:23:28;;;;;;;;;;;;;;;26.26;38.88;100723.47;5078343;28;1121;-25
2023/06/20 07:25:54;;;;;;;;;;;;;;;26.88;39.35;100728.13;5078247;28;1182;-25
2023/06/20 07:28:19;;;;;;;;;;;;;;;26.53;44.24;100723.16;5083461;28;948;-24
2023/06/20 07:30:45;;;;;;;;;;;;;;;23.82;48.10;100714.84;5078341;28;1905;-22
2023/06/20 07:33:10;;;;;;;;;;;;;;;25.54;40.82;100715.34;5078133;28;1047;-26
2023/06/20 07:35:36;;;;;;;;;;;;;;;25.03;41.54;100723.69;5095665;28;1012;-23
2023/06/20 07:38:01;;;;;;;;;;;;;;;25.17;43.59;100723.00;5089647;28;1234;-23
2023/06/20 07:40:27;;;;;;;;;;;;;;;26.87;38.47;100719.22;5079763;28;1359;-24
2023/06/20 07:42:52;;;;;;;;;;;;;;;27.31;38.60;100715.94;5076798;28;1415;-24
2023/06/20 07:45:18;;;;;;;;;;;;;;;24.29;48.50;100728.81;5076761;28;1198;-22
2023/06/20 07:47:43;;;;;;;;;;;;;;;26.61;40.97;100719.59;5064577;28;1285;-24
2023/06/20 07:50:09;;;;;;;;;;;;;;;27.06;40.04;100727.81;5077964;28;1975;-23
2023/06/20 07:52:35;;;;;;;;;;;;;;;23.81;49.36;100721.25;5079499;28;1218;-23
2023/06/20 07:55:03;;;;;;;;;;;;;;;25.82;42.53;100727.59;5076537;28;1214;-23
2023/06/20 07:57:28;;;;;;;;;;;;;;;23.82;49.56;100728.28;5077420;28;1166;-22
2023/06/20 07:59:54;;;;;;;;;;;;;;;25.78;43.70;100731.63;5076754;28;1247;-22
2023/06/20 08:02:20;;;;;;;;;;;;;;;23.73;50.56;100731.94;5078036;28;1171;-23
2023/06/20 08:04:45;;;;;;;;;;;;;;;26.35;42.97;100739.63;5089600;28;1035;-25
2023/06/20 08:07:11;;;;;;;;;;;;;;;23.87;50.14;100738.56;5077242;28;1125;-23
2023/06/20 08:09:36;;;;;;;;;;;;;;;26.37;42.64;100732.22;5059554;28;1148;-22
2023/06/20 08:12:02;;;;;;;;;;;;;;;23.83;50.79;100739.88;5090874;28;1910;-26
2023/06/20 08:14:28;;;;;;;;;;;;;;;26.26;43.30;100728.88;5077265;28;1166;-28
2023/06/20 08:16:53;;;;;;;;;;;;;;;23.82;51.25;100730.97;5061013;28;984;-22
2023/06/20 08:19:19;;;;;;;;;;;;;;;26.23;43.73;100726.53;5077238;28;1131;-23
2023/06/20 08:21:44;;;;;;;;;;;;;;;24.13;50.46;100731.44;5090850;28;1098;-24
2023/06/20 08:24:10;;;;;;;;;;;;;;;26.48;42.70;100723.72;5077213;28;1183;-23
2023/06/20 08:26:35;;;;;;;;;;;;;;;24.11;50.85;100723.53;5076706;28;1038;-24
2023/06/20 08:29:01;;;;;;;;;;;;;;;26.58;42.77;100722.63;5085797;28;960;-23
2023/06/20 08:31:36;;;;;;;;;;;;;;;25.11;45.79;100728.25;5079507;28;1894;-20
2023/06/20 08:34:04;;;;;;;;;;;;;;;27.08;40.79;100731.19;5086674;28;1217;-23
2023/06/20 08:36:30;;;;;;;;;;;;;;;27.59;40.05;100729.63;5089841;28;1164;-23
2023/06/20 08:38:55;;;;;;;;;;;;;;;27.71;39.63;100727.31;5076724;28;1038;-22
2023/06/20 08:41:24;;;;;;;;;;;;;;;27.87;39.22;100728.16;5082951;28;1054;-23
2023/06/20 08:43:49;;;;;;;;;;;;;;;28.08;38.59;100721.13;5096393;28;1061;-21
2023/06/20 08:46:15;;;;;;;;;;;;;;;28.01;39.30;100728.31;5064906;28;1105;-22
2023/06/20 08:48:41;;;;;;;;;;;;;;;27.73;39.25;100725.28;5085442;28;1066;-25
2023/06/20 08:51:07;;;;;;;;;;;;;;;27.89;39.24;100731.53;5093560;28;2237;-24
2023/06/20 08:53:33;;;;;;;;;;;;;;;27.89;39.11;100731.53;5085427;28;1201;-21
2023/06/20 08:55:58;;;;;;;;;;;;;;;27.71;39.14;100719.22;5088031;28;1210;-23
2023/06/20 08:58:24;;;;;;;;;;;;;;;27.80;39.44;100727.22;5058667;28;1079;-22
2023/06/20 09:00:49;;;;;;;;;;;;;;;27.82;39.21;100726.03;5089799;28;1070;-23
2023/06/20 09:03:15;;;;;;;;;;;;;;;27.99;38.72;100728.53;5078506;28;1115;-23
2023/06/20 09:05:41;;;;;;;;;;;;;;;27.96;38.89;100724.31;5082510;28;1034;-22
2023/06/20 09:08:07;;;;;;;;;;;;;;;27.83;38.96;100716.88;5085910;28;1189;-22
2023/06/20 09:10:32;;;;;;;;;;;;;;;27.78;38.75;100721.19;5089729;28;1897;-22
2023/06/20 09:12:58;;;;;;;;;;;;;;;27.83;38.58;100725.00;5075130;28;1114;-22
2023/06/20 09:15:26;;;;;;;;;;;;;;;27.77;38.84;100723.03;5076451;28;1166;-22
2023/06/20 09:17:56;;;;;;;;;;;;;;;27.81;38.67;100720.81;5076170;28;1240;-22
2023/06/20 09:20:24;;;;;;;;;;;;;;;27.98;38.79;100707.91;5080769;28;1154;-21
2023/06/20 09:22:50;;;;;;;;;;;;;;;27.97;38.53;100717.06;5083924;28;1130;-23
2023/06/20 09:25:19;;;;;;;;;;;;;;;28.33;37.68;100715.38;5089562;28;1103;-25
2023/06/20 09:27:44;;;;;;;;;;;;;;;28.22;38.65;100711.28;5096170;28;1138;-24
2023/06/20 09:30:10;;;;;;;;;;;;;;;28.19;38.40;100715.22;5082826;28;1910;-24
2023/06/20 09:32:40;;;;;;;;;;;;;;;28.23;38.26;100708.41;5077858;28;1067;-27
2023/06/20 09:35:06;;;;;;;;;;;;;;;28.42;39.35;100710.69;5075792;28;1237;-27
2023/06/20 09:37:45;;;;;;;;;;;;;;;28.52;38.64;100708.50;5075554;28;1293;-27
2023/06/20 09:40:14;;;;;;;;;;;;;;;28.21;38.48;100704.22;5089490;28;1297;-29
2023/06/20 09:42:43;;;;;;;;;;;;;;;28.23;38.49;100702.13;5092951;28;1115;-25
2023/06/20 09:45:11;;;;;;;;;;;;;;;28.18;38.87;100694.59;5075584;28;1147;-25
2023/06/20 09:47:37;;;;;;;;;;;;;;;28.14;38.88;100690.63;5075690;28;1230;-24
2023/06/20 09:50:06;;;;;;;;;;;;;;;28.17;39.57;100705.63;5075570;28;1902;-29
2023/06/20 09:52:32;;;;;;;;;;;;;;;28.36;38.68;100704.19;5078333;28;1413;-31
2023/06/20 09:54:58;;;;;;;;;;;;;;;28.44;38.71;100687.00;5057639;28;1234;-30
2023/06/20 09:57:30;;;;;;;;;;;;;;;28.38;38.61;100695.88;5057148;28;1254;-33
2023/06/20 09:59:55;;;;;;;;;;;;;;;28.37;38.71;100700.44;5057656;28;1226;-31
2023/06/20 10:02:24;;;;;;;;;;;;;;;28.29;39.03;100698.69;5075497;28;1277;-28
2023/06/20 10:04:49;;;;;;;;;;;;;;;28.21;38.95;100694.22;5075337;28;903;-31
2023/06/20 10:07:15;;;;;;;;;;;;;;;28.08;39.48;100694.91;5093202;28;1130;-30
2023/06/20 10:09:41;;;;;;;;;;;;;;;28.32;38.78;100709.13;5088635;28;1101;-25
2023/06/20 10:12:07;;;;;;;;;;;;;;;28.26;39.56;100709.88;5099047;28;1929;-28
2023/06/20 10:14:33;;;;;;;;;;;;;;;24.70;46.60;100719.13;5099953;28;1190;-29
2023/06/20 10:17:04;;;;;;;;;;;;;;;23.31;49.62;100706.69;5067446;28;1105;-27
2023/06/20 10:19:32;;;;;;;;;;;;;;;22.46;51.23;100701.63;5089056;28;1106;-28
2023/06/20 10:21:58;;;;;;;;;;;;;;;22.30;51.46;100710.38;5078801;28;1090;-26
2023/06/20 10:24:24;;;;;;;;;;;;;;;23.77;50.20;100705.63;5079117;28;1131;-28
2023/06/20 10:26:54;;;;;;;;;;;;;;;25.10;45.13;100708.56;5079619;28;1182;-25
2023/06/20 10:29:20;;;;;;;;;;;;;;;22.47;51.19;100716.72;5081795;28;952;-25
2023/06/20 10:31:56;;;;;;;;;;;;;;;22.44;56.01;100713.53;5095905;28;1906;-28
2023/06/20 10:34:28;;;;;;;;;;;;;;;25.48;46.45;100712.50;5098914;28;1288;-27
2023/06/20 10:36:54;;;;;;;;;;;;;;;22.70;50.80;100700.22;5099103;28;1253;-25
2023/06/20 10:39:19;;;;;;;;;;;;;;;22.16;55.84;100700.13;5080540;28;1327;-27
2023/06/20 10:41:45;;;;;;;;;;;;;;;24.99;46.78;100704.34;5073341;28;1242;-26
2023/06/20 10:44:11;;;;;;;;;;;;;;;22.83;50.59;100697.13;5077505;28;1387;-29
2023/06/20 10:46:37;;;;;;;;;;;;;;;21.89;52.61;100691.97;5079312;28;959;-26
2023/06/20 10:49:03;;;;;;;;;;;;;;;24.40;48.45;100700.78;5079139;28;1031;-29
2023/06/20 10:51:29;;;;;;;;;;;;;;;23.19;49.66;100698.91;5094834;28;1909;-27
2023/06/20 10:54:07;;;;;;;;;;;;;;;21.87;52.80;100691.31;5064879;28;1314;-26
2023/06/20 10:56:34;;;;;;;;;;;;;;;24.65;47.82;100689.22;5099253;28;1138;-25
2023/06/20 10:58:59;;;;;;;;;;;;;;;23.07;49.95;100689.44;5099365;28;1154;-30
2023/06/20 11:01:25;;;;;;;;;;;;;;;21.94;52.77;100688.88;5066811;28;1359;-26
2023/06/20 11:03:50;;;;;;;;;;;;;;;24.16;49.50;100690.78;5077082;28;1191;-24
2023/06/20 11:06:17;;;;;;;;;;;;;;;23.40;48.85;100694.19;5080733;28;1285;-25
2023/06/20 11:08:45;;;;;;;;;;;;;;;22.06;55.42;100692.16;5078122;28;1258;-25
2023/06/20 11:11:11;;;;;;;;;;;;;;;24.92;47.05;100693.41;5077887;28;1918;-24
2023/06/20 11:13:40;;;;;;;;;;;;;;;22.85;50.48;100689.78;5080587;28;1296;-24
2023/06/20 11:16:05;;;;;;;;;;;;;;;22.34;56.01;100698.34;5098050;28;1154;-24
2023/06/20 11:18:31;;;;;;;;;;;;;;;25.22;45.91;100697.44;5078306;28;1076;-27
2023/06/20 11:20:58;;;;;;;;;;;;;;;22.52;50.96;100697.53;5077721;28;1297;-28
2023/06/20 11:23:24;;;;;;;;;;;;;;;23.75;50.42;100697.72;5098270;28;1162;-23
2023/06/20 11:25:49;;;;;;;;;;;;;;;24.57;46.07;100693.56;5067042;28;1271;-24
2023/06/20 11:28:15;;;;;;;;;;;;;;;22.25;51.77;100678.63;5097849;28;1062;-26
2023/06/20 11:30:41;;;;;;;;;;;;;;;24.36;48.95;100686.00;5085347;28;1977;-25
2023/06/20 11:33:13;;;;;;;;;;;;;;;23.56;48.55;100677.31;5078261;28;1163;-24
2023/06/20 11:35:42;;;;;;;;;;;;;;;22.22;54.42;100670.09;5078386;28;1178;-25
2023/06/20 11:38:11;;;;;;;;;;;;;;;24.98;47.00;100669.53;5077847;28;1054;-26
2023/06/20 11:40:36;;;;;;;;;;;;;;;23.06;49.90;100666.28;5090667;28;1201;-25
2023/06/20 11:43:02;;;;;;;;;;;;;;;22.42;55.82;100686.03;5059377;28;1231;-27
2023/06/20 11:45:28;;;;;;;;;;;;;;;25.21;45.91;100696.59;5077247;28;1217;-24
2023/06/20 11:48:09;;;;;;;;;;;;;;;22.61;50.97;100696.63;5077738;28;1253;-25
2023/06/20 11:50:34;;;;;;;;;;;;;;;23.22;52.45;100708.50;5059465;28;1909;-26
2023/06/20 11:53:00;;;;;;;;;;;;;;;25.56;45.71;100704.41;5077032;28;1277;-26
2023/06/20 11:55:45;;;;;;;;;;;;;;;22.36;51.10;100703.53;5083856;28;1189;-24
2023/06/20 11:58:11;;;;;;;;;;;;;;;24.67;47.69;100714.91;5083493;28;1090;-24
2023/06/20 12:00:37;;;;;;;;;;;;;;;23.05;49.00;100711.06;5089801;28;1050;-25
2023/06/20 12:03:07;;;;;;;;;;;;;;;23.28;51.22;100721.28;5090145;28;1094;-26
2023/06/20 12:05:32;;;;;;;;;;;;;;;25.18;43.72;100705.00;5079275;28;855;-24
2023/06/20 12:07:58;;;;;;;;;;;;;;;22.54;54.72;100702.72;5077103;28;1098;-24
2023/06/20 12:10:28;;;;;;;;;;;;;;;25.29;45.40;100701.94;5086210;28;1909;-27
2023/06/20 12:12:54;;;;;;;;;;;;;;;22.60;50.26;100711.03;5080799;28;1050;-25
2023/06/20 12:15:19;;;;;;;;;;;;;;;24.02;48.99;100717.31;5080812;28;1150;-25
2023/06/20 12:17:45;;;;;;;;;;;;;;;23.92;45.99;100727.34;5086984;28;887;-25
2023/06/20 12:20:11;;;;;;;;;;;;;;;22.29;55.03;100737.31;5090748;28;1091;-23
2023/06/20 12:22:37;;;;;;;;;;;;;;;25.29;45.79;100750.41;5087116;28;1070;-25
2023/06/20 12:25:04;;;;;;;;;;;;;;;22.60;50.18;100756.59;5083727;28;1129;-24
2023/06/20 12:27:29;;;;;;;;;;;;;;;24.21;48.72;100756.53;5097381;28;1146;-25
2023/06/20 12:29:54;;;;;;;;;;;;;;;25.65;47.03;100748.34;5087413;28;1922;-23
2023/06/20 12:32:20;;;;;;;;;;;;;;;22.92;49.01;100740.94;5076250;28;1238;-24
2023/06/20 12:34:45;;;;;;;;;;;;;;;23.79;49.25;100725.09;5078900;28;1352;-26
2023/06/20 12:37:11;;;;;;;;;;;;;;;25.82;42.71;100734.81;5076208;28;1225;-26
2023/06/20 12:39:37;;;;;;;;;;;;;;;26.50;41.34;100750.50;5076294;28;1297;-23
2023/06/20 12:42:02;;;;;;;;;;;;;;;27.03;39.73;100741.69;5078633;28;1242;-25
2023/06/20 12:44:28;;;;;;;;;;;;;;;27.12;39.24;100746.00;5075996;28;1297;-28